Terminal Aerodrome Forecast
Issued by NWS Upton, NY

Home | Current Version | Previous Version | Text Only | Print | Product List | Glossary On
Versions: 1 2 3 4 5 6 7 8 9 10 11 12 13 14 15 16 17 18 19 20 21 22 23 24 25 26 27 28 29 30 31 32 33
310
FTUS41 KOKX 261127
TAFJFK
TAF
KJFK 261127Z 2612/2718 04011KT P6SM VCSH SCT020 OVC040
     FM261300 07013G18KT P6SM VCSH OVC020
     FM262000 09013G18KT 5SM -RA BR SCT008 OVC015
     FM270200 09010KT 3SM -DZ BR SCT004 OVC008
     FM270600 09010KT 1/2SM -DZ FG BKN004 OVC008
     FM271200 12008KT 2SM -DZ BR BKN006 OVC008
     FM271600 18008KT 6SM -DZ BKN009=

USA.gov is the U.S. government's official web portal to all federal, state and local government web resources and services.